createdAt,value
2016-12-17T00:00:56.347Z,36.46
2016-12-17T00:01:56.328Z,36.08
2016-12-17T00:02:56.313Z,36.18
2016-12-17T00:03:56.296Z,35.99
2016-12-17T00:04:56.277Z,36.08
2016-12-17T00:05:56.265Z,36.08
2016-12-17T00:06:56.246Z,36.08
2016-12-17T00:07:56.225Z,36.27
2016-12-17T00:08:56.211Z,35.8
2016-12-17T00:09:56.193Z,35.99
2016-12-17T00:10:56.174Z,35.89
2016-12-17T00:11:56.157Z,35.89
2016-12-17T00:12:56.141Z,35.99
2016-12-17T00:13:56.125Z,35.89
2016-12-17T00:14:56.109Z,35.89
2016-12-17T00:15:56.090Z,35.99
2016-12-17T00:16:56.072Z,35.89
2016-12-17T00:17:56.056Z,35.99
2016-12-17T00:18:56.040Z,36.08
2016-12-17T00:19:56.022Z,35.89
2016-12-17T00:20:56.006Z,36.36
2016-12-17T00:21:55.986Z,36.27
2016-12-17T00:22:55.972Z,36.27
2016-12-17T00:23:55.953Z,36.18
2016-12-17T00:24:55.936Z,36.18
2016-12-17T00:25:55.920Z,36.27
2016-12-17T00:26:55.903Z,36.55
2016-12-17T00:27:55.886Z,36.46
2016-12-17T00:28:55.869Z,36.36
2016-12-17T00:29:55.855Z,36.27
2016-12-17T00:30:55.832Z,36.46
2016-12-17T00:31:55.817Z,36.46
2016-12-17T00:32:55.801Z,36.27
2016-12-17T00:33:55.782Z,36.18
2016-12-17T00:34:55.767Z,35.89
2016-12-17T00:35:55.778Z,36.27
2016-12-17T00:36:55.728Z,35.89
2016-12-17T00:37:55.711Z,35.89
2016-12-17T00:38:55.693Z,35.8
2016-12-17T00:39:55.678Z,36.08
2016-12-17T00:40:55.661Z,35.89
2016-12-17T00:41:55.657Z,35.8
2016-12-17T00:42:55.628Z,35.89
2016-12-17T00:43:55.610Z,35.89
2016-12-17T00:44:55.597Z,35.89
2016-12-17T00:45:55.578Z,35.99
2016-12-17T00:46:55.559Z,35.89
2016-12-17T00:47:55.543Z,35.97
2016-12-17T00:48:55.520Z,35.97
2016-12-17T00:49:55.506Z,35.88
2016-12-17T00:50:55.490Z,35.97
2016-12-17T00:51:55.469Z,35.97
2016-12-17T00:52:55.454Z,35.97
2016-12-17T00:53:55.434Z,35.97
2016-12-17T00:54:55.418Z,35.97
2016-12-17T00:55:55.400Z,35.88
2016-12-17T00:56:55.386Z,36.16
2016-12-17T00:57:55.366Z,36.25
2016-12-17T00:58:55.352Z,35.88
2016-12-17T00:59:55.330Z,36.27
2016-12-17T01:00:55.314Z,36.25
2016-12-17T01:01:55.299Z,36.07
2016-12-17T01:02:55.278Z,35.99
2016-12-17T01:03:55.260Z,36.08
2016-12-17T01:04:55.242Z,35.99
2016-12-17T01:05:55.225Z,36.46
2016-12-17T01:06:55.210Z,36.08
2016-12-17T01:07:55.191Z,36.08
2016-12-17T01:08:55.176Z,36.55
2016-12-17T01:09:55.156Z,36.55
2016-12-17T01:10:55.135Z,36.08
2016-12-17T01:11:55.122Z,36.08
2016-12-17T01:12:55.103Z,35.99
2016-12-17T01:13:55.087Z,35.99
2016-12-17T01:14:55.067Z,36.08
2016-12-17T01:15:55.051Z,36.08
2016-12-17T01:16:55.033Z,36.18
2016-12-17T01:17:55.015Z,36.08
2016-12-17T01:18:54.995Z,36.08
2016-12-17T01:19:54.980Z,36.27
2016-12-17T01:20:54.960Z,36.08
2016-12-17T01:21:54.945Z,36.08
2016-12-17T01:22:54.927Z,36.08
2016-12-17T01:23:54.912Z,36.46
2016-12-17T01:24:54.891Z,36.18
2016-12-17T01:25:54.873Z,36.55
2016-12-17T01:26:54.858Z,36.27
2016-12-17T01:27:54.835Z,36.27
2016-12-17T01:28:54.819Z,36.27
2016-12-17T01:29:54.802Z,36.27
2016-12-17T01:30:54.786Z,36.27
2016-12-17T01:31:54.770Z,36.27
2016-12-17T01:32:54.749Z,36.27
2016-12-17T01:33:54.733Z,36.18
2016-12-17T01:34:54.719Z,36.46
2016-12-17T01:35:54.704Z,36.46
2016-12-17T01:36:54.684Z,36.27
2016-12-17T01:37:54.663Z,36.55
2016-12-17T01:38:54.648Z,36.08
2016-12-17T01:39:54.629Z,36.08
2016-12-17T01:40:54.613Z,36.08
2016-12-17T01:41:54.592Z,36.08
2016-12-17T01:42:54.576Z,36.55
2016-12-17T01:43:54.559Z,36.27
2016-12-17T01:44:54.544Z,36.27
2016-12-17T01:45:54.521Z,36.36
2016-12-17T01:46:54.509Z,36.36
2016-12-17T01:47:54.488Z,36.36
2016-12-17T01:48:54.470Z,36.18
2016-12-17T01:49:54.456Z,36.27
2016-12-17T01:50:54.435Z,36.36
2016-12-17T01:51:54.421Z,36.36
2016-12-17T01:52:54.403Z,36.27
2016-12-17T01:53:54.386Z,36.36
2016-12-17T01:54:54.364Z,36.36
2016-12-17T01:55:54.350Z,36.27
2016-12-17T01:56:54.335Z,36.36
2016-12-17T01:57:54.316Z,36.36
2016-12-17T01:58:54.300Z,36.46
2016-12-17T01:59:54.282Z,36.27
2016-12-17T02:00:54.264Z,36.27
2016-12-17T02:01:54.245Z,36.27
2016-12-17T02:02:54.235Z,36.27
2016-12-17T02:03:54.214Z,36.27
2016-12-17T02:04:54.195Z,36.27
2016-12-17T02:05:54.173Z,36.27
2016-12-17T02:06:54.158Z,36.36
2016-12-17T02:07:54.144Z,36.27
2016-12-17T02:08:54.126Z,36.27
2016-12-17T02:09:54.101Z,36.46
2016-12-17T02:10:54.086Z,36.36
2016-12-17T02:11:54.067Z,36.27
2016-12-17T02:12:54.052Z,36.36
2016-12-17T02:13:54.031Z,36.36
2016-12-17T02:14:54.013Z,36.36
2016-12-17T02:15:54.299Z,36.36
2016-12-17T02:16:53.975Z,36.46
2016-12-17T02:17:53.963Z,36.46
2016-12-17T02:18:53.939Z,36.36
2016-12-17T02:19:53.919Z,36.46
2016-12-17T02:20:53.900Z,36.46
2016-12-17T02:21:53.885Z,36.27
2016-12-17T02:22:53.866Z,36.27
2016-12-17T02:23:53.846Z,36.36
2016-12-17T02:24:53.828Z,36.27
2016-12-17T02:25:53.811Z,36.55
2016-12-17T02:26:53.795Z,36.46
2016-12-17T02:27:53.778Z,36.55
2016-12-17T02:28:53.757Z,36.46
2016-12-17T02:29:53.738Z,36.65
2016-12-17T02:30:53.719Z,36.46
2016-12-17T02:31:53.700Z,36.65
2016-12-17T02:32:53.684Z,36.55
2016-12-17T02:33:53.659Z,36.65
2016-12-17T02:34:53.643Z,36.55
2016-12-17T02:35:53.625Z,36.65
2016-12-17T02:36:53.604Z,36.65
2016-12-17T02:37:53.584Z,36.55
2016-12-17T02:38:53.567Z,36.65
2016-12-17T02:39:53.548Z,36.65
2016-12-17T02:40:53.529Z,36.74
2016-12-17T02:41:53.511Z,36.74
2016-12-17T02:42:53.491Z,36.74
2016-12-17T02:43:53.480Z,36.74
2016-12-17T02:44:53.458Z,36.55
2016-12-17T02:45:53.435Z,36.65
2016-12-17T02:46:53.422Z,36.74
2016-12-17T02:47:53.399Z,36.83
2016-12-17T02:48:53.382Z,36.83
2016-12-17T02:49:53.364Z,36.74
2016-12-17T02:50:53.343Z,36.83
2016-12-17T02:51:53.326Z,36.83
2016-12-17T02:52:53.307Z,36.55
2016-12-17T02:53:53.288Z,36.83
2016-12-17T02:54:53.269Z,36.83
2016-12-17T02:55:53.250Z,36.65
2016-12-17T02:56:53.232Z,36.83
2016-12-17T02:57:53.213Z,36.93
2016-12-17T02:58:53.195Z,36.93
2016-12-17T02:59:53.177Z,36.83
2016-12-17T03:00:53.158Z,36.82
2016-12-17T03:01:53.139Z,36.63
2016-12-17T03:02:53.120Z,36.83
2016-12-17T03:03:53.105Z,36.83
2016-12-17T03:04:53.083Z,36.93
2016-12-17T03:05:53.066Z,36.93
2016-12-17T03:06:53.046Z,36.83
2016-12-17T03:07:53.026Z,36.93
2016-12-17T03:08:53.011Z,36.83
2016-12-17T03:09:52.989Z,36.93
2016-12-17T03:10:52.971Z,36.93
2016-12-17T03:11:52.953Z,36.93
2016-12-17T03:12:52.931Z,36.93
2016-12-17T03:13:52.917Z,36.83
2016-12-17T03:14:52.901Z,36.83
2016-12-17T03:15:52.879Z,36.91
2016-12-17T03:16:52.858Z,36.82
2016-12-17T03:17:52.841Z,36.82
2016-12-17T03:18:52.819Z,36.72
2016-12-17T03:19:52.798Z,36.72
2016-12-17T03:20:52.784Z,36.72
2016-12-17T03:21:52.764Z,37.29
2016-12-17T03:22:52.744Z,37.19
2016-12-17T03:23:52.723Z,37.21
2016-12-17T03:24:52.708Z,37.21
2016-12-17T03:25:52.685Z,37.12
2016-12-17T03:26:52.668Z,36.93
2016-12-17T03:27:52.650Z,37.02
2016-12-17T03:28:52.633Z,37.02
2016-12-17T03:29:52.611Z,37.12
2016-12-17T03:30:52.593Z,36.93
2016-12-17T03:31:52.578Z,37.02
2016-12-17T03:32:52.558Z,37.21
2016-12-17T03:33:52.537Z,37.21
2016-12-17T03:34:52.522Z,37.29
2016-12-17T03:35:52.498Z,37.38
2016-12-17T03:36:52.481Z,37.5
2016-12-17T03:37:52.460Z,37.38
2016-12-17T03:38:52.444Z,37.48
2016-12-17T03:39:52.426Z,37.38
2016-12-17T03:40:52.404Z,37.38
2016-12-17T03:41:52.385Z,37.48
2016-12-17T03:42:52.368Z,37.57
2016-12-17T03:43:52.347Z,37.67
2016-12-17T03:44:52.327Z,37.67
2016-12-17T03:45:52.310Z,37.76
2016-12-17T03:46:52.291Z,37.85
2016-12-17T03:47:52.271Z,37.48
2016-12-17T03:48:52.253Z,37.57
2016-12-17T03:49:52.234Z,37.67
2016-12-17T03:50:52.216Z,37.57
2016-12-17T03:51:52.201Z,37.95
2016-12-17T03:52:52.176Z,37.76
2016-12-17T03:53:52.157Z,37.85
2016-12-17T03:54:52.138Z,37.95
2016-12-17T03:55:52.116Z,38.14
2016-12-17T03:56:52.099Z,37.95
2016-12-17T03:57:52.078Z,38.04
2016-12-17T03:58:52.060Z,37.67
2016-12-17T03:59:52.040Z,37.85
2016-12-17T04:00:52.023Z,37.76
2016-12-17T04:01:52.004Z,37.67
2016-12-17T04:02:51.982Z,38.14
2016-12-17T04:03:51.963Z,38.04
2016-12-17T04:04:51.942Z,38.04
2016-12-17T04:05:51.922Z,37.95
2016-12-17T04:06:51.904Z,37.95
2016-12-17T04:07:51.886Z,37.76
2016-12-17T04:08:51.865Z,38.14
2016-12-17T04:09:51.844Z,38.14
2016-12-17T04:10:51.827Z,38.23
2016-12-17T04:11:51.810Z,38.33
2016-12-17T04:12:51.788Z,38.23
2016-12-17T04:13:51.768Z,38.33
2016-12-17T04:14:51.750Z,38.42
2016-12-17T04:15:51.729Z,38.61
2016-12-17T04:16:51.709Z,38.61
2016-12-17T04:17:51.690Z,38.71
2016-12-17T04:18:51.670Z,38.52
2016-12-17T04:19:51.656Z,38.61
2016-12-17T04:20:51.631Z,39.09
2016-12-17T04:21:51.612Z,39.09
2016-12-17T04:22:51.594Z,38.9
2016-12-17T04:23:51.575Z,38.9
2016-12-17T04:24:51.554Z,38.71
2016-12-17T04:25:51.534Z,38.61
2016-12-17T04:26:51.515Z,38.61
2016-12-17T04:27:51.501Z,39.09
2016-12-17T04:28:51.491Z,38.8
2016-12-17T04:29:51.459Z,39.11
2016-12-17T04:30:51.441Z,39.2
2016-12-17T04:31:51.423Z,39.2
2016-12-17T04:32:51.400Z,39.29
2016-12-17T04:33:51.384Z,39.39
2016-12-17T04:34:51.363Z,39.29
2016-12-17T04:35:51.346Z,39.29
2016-12-17T04:36:51.329Z,39.29
2016-12-17T04:37:51.308Z,39.39
2016-12-17T04:38:51.288Z,39.48
2016-12-17T04:39:51.267Z,39.58
2016-12-17T04:40:51.254Z,39.58
2016-12-17T04:41:51.236Z,39.48
2016-12-17T04:42:51.214Z,39.48
2016-12-17T04:43:51.195Z,39.39
2016-12-17T04:44:51.179Z,39.48
2016-12-17T04:45:51.160Z,39.48
2016-12-17T04:46:51.141Z,39.48
2016-12-17T04:47:51.124Z,39.39
2016-12-17T04:48:51.108Z,39.48
2016-12-17T04:49:51.087Z,39.86
2016-12-17T04:50:51.072Z,39.76
2016-12-17T04:51:51.054Z,39.86
2016-12-17T04:52:51.039Z,39.76
2016-12-17T04:53:51.018Z,39.76
2016-12-17T04:54:51.002Z,39.76
2016-12-17T04:55:50.983Z,39.48
2016-12-17T04:56:50.969Z,39.67
2016-12-17T04:57:50.945Z,39.39
2016-12-17T04:58:51.134Z,39.39
2016-12-17T04:59:50.912Z,39.48
2016-12-17T05:00:50.896Z,39.58
2016-12-17T05:01:50.878Z,39.48
2016-12-17T05:02:50.864Z,39.39
2016-12-17T05:03:50.876Z,39.29
2016-12-17T05:04:50.827Z,39.29
2016-12-17T05:05:50.809Z,39.29
2016-12-17T05:06:50.793Z,39.29
2016-12-17T05:07:50.777Z,39.39
2016-12-17T05:08:50.759Z,39.2
2016-12-17T05:09:50.741Z,39.29
2016-12-17T05:10:50.725Z,39.29
2016-12-17T05:11:50.707Z,39.39
2016-12-17T05:12:50.696Z,39.39
2016-12-17T05:13:50.674Z,39.29
2016-12-17T05:14:50.655Z,39.29
2016-12-17T05:15:50.644Z,39.29
2016-12-17T05:16:50.624Z,39.29
2016-12-17T05:17:50.603Z,39.29
2016-12-17T05:18:50.585Z,39.29
2016-12-17T05:19:50.568Z,39.39
2016-12-17T05:20:50.552Z,39.29
2016-12-17T05:21:50.536Z,39.29
2016-12-17T05:22:50.514Z,39.29
2016-12-17T05:23:50.499Z,39.29
2016-12-17T05:24:50.483Z,39.39
2016-12-17T05:25:50.465Z,39.39
2016-12-17T05:26:50.446Z,39.2
2016-12-17T05:27:50.429Z,39.39
2016-12-17T05:28:50.413Z,39.11
2016-12-17T05:29:50.392Z,39.29
2016-12-17T05:30:50.376Z,39.11
2016-12-17T05:31:50.358Z,39.11
2016-12-17T05:32:50.345Z,39.11
2016-12-17T05:33:50.324Z,39.01
2016-12-17T05:34:50.307Z,39.01
2016-12-17T05:35:50.288Z,39.01
2016-12-17T05:36:50.273Z,39.2
2016-12-17T05:37:50.254Z,39.01
2016-12-17T05:38:50.237Z,39.11
2016-12-17T05:39:50.220Z,38.92
2016-12-17T05:40:50.201Z,39.11
2016-12-17T05:41:50.184Z,38.63
2016-12-17T05:42:50.167Z,38.63
2016-12-17T05:43:50.152Z,38.63
2016-12-17T05:44:50.132Z,38.63
2016-12-17T05:45:50.115Z,38.63
2016-12-17T05:46:50.096Z,38.54
2016-12-17T05:47:50.078Z,38.73
2016-12-17T05:48:50.057Z,38.63
2016-12-17T05:49:50.042Z,38.63
2016-12-17T05:50:50.026Z,38.63
2016-12-17T05:51:50.006Z,39.11
2016-12-17T05:52:49.986Z,38.92
2016-12-17T05:53:49.967Z,39.11
2016-12-17T05:54:49.954Z,38.92
2016-12-17T05:56:04.846Z,39.01
2016-12-17T05:56:50.107Z,39.11
2016-12-17T05:57:49.897Z,38.63
2016-12-17T05:58:49.884Z,38.82
2016-12-17T05:59:49.863Z,38.99
2016-12-17T06:00:49.846Z,38.99
2016-12-17T06:01:49.830Z,38.99
2016-12-17T06:02:49.810Z,38.52
2016-12-17T06:03:49.791Z,39.09
2016-12-17T06:04:49.773Z,38.71
2016-12-17T06:05:49.756Z,38.52
2016-12-17T06:06:49.737Z,38.99
2016-12-17T06:07:49.717Z,38.8
2016-12-17T06:08:49.698Z,38.8
2016-12-17T06:09:49.682Z,38.71
2016-12-17T06:10:49.660Z,38.9
2016-12-17T06:11:49.642Z,38.99
2016-12-17T06:12:49.632Z,38.78
2016-12-17T06:13:49.603Z,38.61
2016-12-17T06:14:49.585Z,38.8
2016-12-17T06:15:49.568Z,39.09
2016-12-17T06:16:49.546Z,38.9
2016-12-17T06:17:49.528Z,38.8
2016-12-17T06:18:49.506Z,38.9
2016-12-17T06:19:49.491Z,38.9
2016-12-17T06:20:49.470Z,38.87
2016-12-17T06:21:49.449Z,38.97
2016-12-17T06:22:49.431Z,39.06
2016-12-17T06:23:49.413Z,39.06
2016-12-17T06:24:49.389Z,39.16
2016-12-17T06:25:49.372Z,39.06
2016-12-17T06:26:49.349Z,39.25
2016-12-17T06:27:49.332Z,39.35
2016-12-17T06:28:49.310Z,39.44
2016-12-17T06:29:49.295Z,39.44
2016-12-17T06:30:49.271Z,39.35
2016-12-17T06:31:49.253Z,39.82
2016-12-17T06:32:49.231Z,39.63
2016-12-17T06:33:49.211Z,39.54
2016-12-17T06:34:49.192Z,39.35
2016-12-17T06:35:49.169Z,39.46
2016-12-17T06:36:49.151Z,39.84
2016-12-17T06:37:49.129Z,39.84
2016-12-17T06:38:49.111Z,39.84
2016-12-17T06:39:49.089Z,39.94
2016-12-17T06:40:49.069Z,39.94
2016-12-17T06:41:49.053Z,39.94
2016-12-17T06:42:49.032Z,39.84
2016-12-17T06:43:49.010Z,40.03
2016-12-17T06:44:48.992Z,40.03
2016-12-17T06:45:48.972Z,40.03
2016-12-17T06:46:48.950Z,40.12
2016-12-17T06:47:48.931Z,40.12
2016-12-17T06:48:48.912Z,40.22
2016-12-17T06:49:48.894Z,39.94
2016-12-17T06:50:48.872Z,40.31
2016-12-17T06:51:48.852Z,40.31
2016-12-17T06:52:48.832Z,40.22
2016-12-17T06:53:48.813Z,40.12
2016-12-17T06:54:48.791Z,40.22
2016-12-17T06:55:48.775Z,40.29
2016-12-17T06:56:48.756Z,40.31
2016-12-17T06:57:48.733Z,40.22
2016-12-17T06:58:48.714Z,40.29
2016-12-17T06:59:48.694Z,40.22
2016-12-17T07:00:48.673Z,40.31
2016-12-17T07:01:48.956Z,40.41
2016-12-17T07:02:48.636Z,40.5
2016-12-17T07:03:48.616Z,40.41
2016-12-17T07:04:48.592Z,40.41
2016-12-17T07:05:48.576Z,40.5
2016-12-17T07:06:48.557Z,40.5
2016-12-17T07:07:48.535Z,40.5
2016-12-17T07:08:48.513Z,40.59
2016-12-17T07:09:48.501Z,40.59
2016-12-17T07:10:48.478Z,40.59
2016-12-17T07:11:48.457Z,40.69
2016-12-17T07:12:48.439Z,40.78
2016-12-17T07:13:48.419Z,40.78
2016-12-17T07:14:48.403Z,40.88
2016-12-17T07:15:48.381Z,40.88
2016-12-17T07:16:48.365Z,40.88
2016-12-17T07:17:48.343Z,41.16
2016-12-17T07:18:48.324Z,41.06
2016-12-17T07:19:48.306Z,41.16
2016-12-17T07:20:48.285Z,40.97
2016-12-17T07:21:48.269Z,40.97
2016-12-17T07:22:48.249Z,41.06
2016-12-17T07:23:48.233Z,40.97
2016-12-17T07:24:48.213Z,41.25
2016-12-17T07:25:48.197Z,40.88
2016-12-17T07:26:48.174Z,40.88
2016-12-17T07:27:48.158Z,40.88
2016-12-17T07:28:48.137Z,40.78
2016-12-17T07:29:48.121Z,40.78
2016-12-17T07:30:48.101Z,40.88
2016-12-17T07:31:48.082Z,40.9
2016-12-17T07:32:48.063Z,40.99
2016-12-17T07:33:48.050Z,41.09
2016-12-17T07:34:48.027Z,40.8
2016-12-17T07:35:48.009Z,40.9
2016-12-17T07:36:47.995Z,40.9
2016-12-17T07:37:47.972Z,41.18
2016-12-17T07:38:47.955Z,40.9
2016-12-17T07:39:47.936Z,40.9
2016-12-17T07:40:47.920Z,40.9
2016-12-17T07:41:47.901Z,40.83
2016-12-17T07:42:47.881Z,40.92
2016-12-17T07:43:47.865Z,40.9
2016-12-17T07:44:47.846Z,40.52
2016-12-17T07:45:47.829Z,40.61
2016-12-17T07:46:47.810Z,40.61
2016-12-17T07:47:47.793Z,40.61
2016-12-17T07:48:47.776Z,40.54
2016-12-17T07:49:47.756Z,40.54
2016-12-17T07:50:47.740Z,40.92
2016-12-17T07:51:47.721Z,40.35
2016-12-17T07:52:47.704Z,40.71
2016-12-17T07:53:47.687Z,40.54
2016-12-17T07:54:47.670Z,40.35
2016-12-17T07:55:47.650Z,40.42
2016-12-17T07:56:47.631Z,40.45
2016-12-17T07:57:47.615Z,40.45
2016-12-17T07:58:47.600Z,40.54
2016-12-17T07:59:47.578Z,40.54
2016-12-17T08:00:47.563Z,40.64
2016-12-17T08:01:47.542Z,40.45
2016-12-17T08:02:47.527Z,40.35
2016-12-17T08:03:47.507Z,40.35
2016-12-17T08:04:47.493Z,40.35
2016-12-17T08:05:47.473Z,40.16
2016-12-17T08:06:47.457Z,40.16
2016-12-17T08:07:47.438Z,40.16
2016-12-17T08:08:47.423Z,40.26
2016-12-17T08:09:47.404Z,40.26
2016-12-17T08:10:47.385Z,40.16
2016-12-17T08:11:47.367Z,40.16
2016-12-17T08:12:47.352Z,40.16
2016-12-17T08:13:47.638Z,40.16
2016-12-17T08:14:47.315Z,40.19
2016-12-17T08:15:47.296Z,40.28
2016-12-17T08:16:47.280Z,40.19
2016-12-17T08:17:47.266Z,40.47
2016-12-17T08:18:47.242Z,40.47
2016-12-17T08:19:47.231Z,40.19
2016-12-17T08:20:47.215Z,40.19
2016-12-17T08:21:47.192Z,40.09
2016-12-17T08:22:47.175Z,40.07
2016-12-17T08:23:47.160Z,39.88
2016-12-17T08:24:47.142Z,39.88
2016-12-17T08:25:47.122Z,39.97
2016-12-17T08:26:47.106Z,39.88
2016-12-17T08:27:47.085Z,39.88
2016-12-17T08:28:47.069Z,39.88
2016-12-17T08:29:47.054Z,39.97
2016-12-17T08:30:47.036Z,40.07
2016-12-17T08:31:47.015Z,39.88
2016-12-17T08:32:46.997Z,40.07
2016-12-17T08:33:46.982Z,39.88
2016-12-17T08:34:46.965Z,39.9
2016-12-17T08:35:46.948Z,40.09
2016-12-17T08:36:46.927Z,40.09
2016-12-17T08:37:46.907Z,40.19
2016-12-17T08:38:46.925Z,40
2016-12-17T08:39:46.872Z,39.9
2016-12-17T08:40:46.858Z,40
2016-12-17T08:41:46.838Z,40
2016-12-17T08:42:46.822Z,39.88
2016-12-17T08:43:46.802Z,40
2016-12-17T08:44:46.789Z,40
2016-12-17T08:45:46.770Z,40.09
2016-12-17T08:46:46.751Z,40.19
2016-12-17T08:47:46.731Z,40.09
2016-12-17T08:48:46.713Z,40
2016-12-17T08:49:46.699Z,40.11
2016-12-17T08:50:46.707Z,40.01
2016-12-17T08:51:46.667Z,40.11
2016-12-17T08:52:46.644Z,40.11
2016-12-17T08:53:46.633Z,40.2
2016-12-17T08:54:46.608Z,40.3
2016-12-17T08:55:46.592Z,40.22
2016-12-17T08:56:46.580Z,40.22
2016-12-17T08:57:46.562Z,40.34
2016-12-17T08:58:46.547Z,40.44
2016-12-17T08:59:46.531Z,40.45
2016-12-17T09:00:46.514Z,40.55
2016-12-17T09:01:46.498Z,40.36
2016-12-17T09:02:46.483Z,40.47
2016-12-17T09:03:46.467Z,40.47
2016-12-17T09:04:46.458Z,40.59
2016-12-17T09:05:46.434Z,40.5
2016-12-17T09:06:46.421Z,40.31
2016-12-17T09:07:46.409Z,40.38
2016-12-17T09:08:46.391Z,40.47
2016-12-17T09:09:46.379Z,40.28
2016-12-17T09:10:46.363Z,40.08
2016-12-17T09:11:46.352Z,40.03
2016-12-17T09:12:46.339Z,39.75
2016-12-17T09:13:46.319Z,39.56
2016-12-17T09:14:46.305Z,39.54
2016-12-17T09:15:46.288Z,39.64
2016-12-17T09:16:46.273Z,39.83
2016-12-17T09:17:46.262Z,39.92
2016-12-17T09:18:46.244Z,40.13
2016-12-17T09:19:46.230Z,40.13
2016-12-17T09:20:46.212Z,40.06
2016-12-17T09:21:46.201Z,40.06
2016-12-17T09:22:46.180Z,40.08
2016-12-17T09:23:46.164Z,40.17
2016-12-17T09:24:46.151Z,40.08
2016-12-17T09:25:46.136Z,40.28
2016-12-17T09:26:46.125Z,40.28
2016-12-17T09:27:46.107Z,40.31
2016-12-17T09:28:46.095Z,40.42
2016-12-17T09:29:46.085Z,40.33
2016-12-17T09:30:46.065Z,40.42
2016-12-17T09:31:46.051Z,40.33
2016-12-17T09:32:46.044Z,40.42
2016-12-17T09:33:46.027Z,40.33
2016-12-17T09:34:46.013Z,40.53
2016-12-17T09:35:45.999Z,40.53
2016-12-17T09:36:45.987Z,40.46
2016-12-17T09:37:45.979Z,40.56
2016-12-17T09:38:45.964Z,40.46
2016-12-17T09:39:45.949Z,40.46
2016-12-17T09:40:45.936Z,40.37
2016-12-17T09:41:45.926Z,40.37
2016-12-17T09:42:45.914Z,40.33
2016-12-17T09:43:45.903Z,40.33
2016-12-17T09:44:45.887Z,40.14
2016-12-17T09:45:45.878Z,40.23
2016-12-17T09:46:45.863Z,40.23
2016-12-17T09:47:45.852Z,40.34
2016-12-17T09:48:45.841Z,40.37
2016-12-17T09:49:45.829Z,40.37
2016-12-17T09:50:45.817Z,40.46
2016-12-17T09:51:45.806Z,40.37
2016-12-17T09:52:45.792Z,40.39
2016-12-17T09:53:45.781Z,40.48
2016-12-17T09:54:45.770Z,40.39
2016-12-17T09:55:45.755Z,40.39
2016-12-17T09:56:45.747Z,40.39
2016-12-17T09:57:45.731Z,40.5
2016-12-17T09:58:45.718Z,40.29
2016-12-17T09:59:45.708Z,40.39
2016-12-17T10:00:45.701Z,40.48
2016-12-17T10:01:45.684Z,40.39
2016-12-17T10:02:45.671Z,40.27
2016-12-17T10:03:45.662Z,40.37
2016-12-17T10:04:45.651Z,40.37
2016-12-17T10:05:45.638Z,40.37
2016-12-17T10:06:45.629Z,40.37
2016-12-17T10:07:45.621Z,40.17
2016-12-17T10:08:45.602Z,40.29
2016-12-17T10:09:45.594Z,40.29
2016-12-17T10:10:45.579Z,40.27
2016-12-17T10:11:45.570Z,40.37
2016-12-17T10:12:45.558Z,40.29
2016-12-17T10:13:45.546Z,40.27
2016-12-17T10:14:45.536Z,40.25
2016-12-17T10:15:45.521Z,40.16
2016-12-17T10:16:45.512Z,40.25
2016-12-17T10:17:45.502Z,40.25
2016-12-17T10:18:45.489Z,40.08
2016-12-17T10:19:45.479Z,40.08
2016-12-17T10:20:45.463Z,40.29
2016-12-17T10:21:45.456Z,40.2
2016-12-17T10:22:45.441Z,40.2
2016-12-17T10:23:45.431Z,40.1
2016-12-17T10:24:45.418Z,39.62
2016-12-17T10:25:45.408Z,39.79
2016-12-17T10:26:45.395Z,39.89
2016-12-17T10:27:45.385Z,39.79
2016-12-17T10:28:45.371Z,39.89
2016-12-17T10:29:45.362Z,39.97
2016-12-17T10:30:45.351Z,39.68
2016-12-17T10:31:45.339Z,39.76
2016-12-17T10:32:45.328Z,39.76
2016-12-17T10:33:45.317Z,39.57
2016-12-17T10:34:45.301Z,39.26
2016-12-17T10:35:45.294Z,39.15
2016-12-17T10:36:45.276Z,39.34
2016-12-17T10:37:45.273Z,38.75
2016-12-17T10:38:45.254Z,38.84
2016-12-17T10:39:45.241Z,39.13
2016-12-17T10:40:45.232Z,39.01
2016-12-17T10:41:45.217Z,38.82
2016-12-17T10:42:45.204Z,38.75
2016-12-17T10:43:45.193Z,38.84
2016-12-17T10:44:45.203Z,38.82
2016-12-17T10:45:45.192Z,39.11
2016-12-17T10:46:45.153Z,38.92
2016-12-17T10:47:45.163Z,38.82
2016-12-17T10:48:45.121Z,38.81
2016-12-17T10:49:45.106Z,38.43
2016-12-17T10:50:45.095Z,38.41
2016-12-17T10:51:45.081Z,38.41
2016-12-17T10:52:45.067Z,38.5
2016-12-17T10:53:45.053Z,38.5
2016-12-17T10:54:45.036Z,38.69
2016-12-17T10:55:45.022Z,38.71
2016-12-17T10:56:45.010Z,38.52
2016-12-17T10:57:44.992Z,38.71
2016-12-17T10:58:44.981Z,38.71
2016-12-17T10:59:44.962Z,38.52
2016-12-17T11:00:44.955Z,38.33
2016-12-17T11:01:44.935Z,38.71
2016-12-17T11:02:44.918Z,38.52
2016-12-17T11:03:44.906Z,38.82
2016-12-17T11:04:44.889Z,38.64
2016-12-17T11:05:44.876Z,39.03
2016-12-17T11:06:44.860Z,39.05
2016-12-17T11:07:44.846Z,38.96
2016-12-17T11:08:44.831Z,39.17
2016-12-17T11:09:44.819Z,38.86
2016-12-17T11:10:44.804Z,38.77
2016-12-17T11:11:44.791Z,39.05
2016-12-17T11:12:44.778Z,38.86
2016-12-17T11:13:44.764Z,38.96
2016-12-17T11:14:44.747Z,38.89
2016-12-17T11:15:44.735Z,38.69
2016-12-17T11:16:44.722Z,38.79
2016-12-17T11:17:44.710Z,38.84
2016-12-17T11:18:44.696Z,39.24
2016-12-17T11:19:44.685Z,38.79
2016-12-17T11:20:44.670Z,38.86
2016-12-17T11:21:44.656Z,38.86
2016-12-17T11:22:44.644Z,38.58
2016-12-17T11:23:44.630Z,38.67
2016-12-17T11:24:44.620Z,38.86
2016-12-17T11:25:44.603Z,39.15
2016-12-17T11:26:44.589Z,39.17
2016-12-17T11:27:44.726Z,39.18
2016-12-17T11:28:44.563Z,39.18
2016-12-17T11:29:44.552Z,39.18
2016-12-17T11:30:44.565Z,39.37
2016-12-17T11:31:44.524Z,38.71
2016-12-17T11:32:44.514Z,38.81
2016-12-17T11:33:44.503Z,38.89
2016-12-17T11:34:44.486Z,38.98
2016-12-17T11:35:44.472Z,38.79
2016-12-17T11:36:44.460Z,38.98
2016-12-17T11:37:44.446Z,39.26
2016-12-17T11:38:44.432Z,39.18
2016-12-17T11:39:44.421Z,39.09
2016-12-17T11:40:44.408Z,38.9
2016-12-17T11:41:44.394Z,38.92
2016-12-17T11:42:44.384Z,39.01
2016-12-17T11:43:44.370Z,39.01
2016-12-17T11:44:44.354Z,39.01
2016-12-17T11:45:44.346Z,38.92
2016-12-17T11:46:44.330Z,39.01
2016-12-17T11:47:44.320Z,39.11
2016-12-17T11:48:44.308Z,38.82
2016-12-17T11:49:44.295Z,39.11
2016-12-17T11:50:44.285Z,39.21
2016-12-17T11:51:44.271Z,38.81
2016-12-17T11:52:44.259Z,38.9
2016-12-17T11:53:44.245Z,38.79
2016-12-17T11:54:44.235Z,38.79
2016-12-17T11:55:44.231Z,39.26
2016-12-17T11:56:44.209Z,39.07
2016-12-17T11:57:44.200Z,39.18
2016-12-17T11:58:44.185Z,38.71
2016-12-17T11:59:44.175Z,38.69
2016-12-17T12:00:44.162Z,39.17
2016-12-17T12:01:44.149Z,39.17
2016-12-17T12:02:44.138Z,38.69
2016-12-17T12:03:44.124Z,39.26
2016-12-17T12:04:44.111Z,38.79
2016-12-17T12:05:44.101Z,38.86
2016-12-17T12:06:44.084Z,39.26
2016-12-17T12:07:44.076Z,39.17
2016-12-17T12:08:44.059Z,38.89
2016-12-17T12:09:44.047Z,39
2016-12-17T12:10:44.037Z,38.9
2016-12-17T12:11:44.021Z,38.69
2016-12-17T12:12:44.010Z,38.77
2016-12-17T12:13:43.995Z,38.77
2016-12-17T12:14:43.986Z,38.77
2016-12-17T12:15:43.970Z,38.86
2016-12-17T12:16:43.959Z,38.77
2016-12-17T12:17:43.945Z,38.86
2016-12-17T12:18:43.933Z,38.86
2016-12-17T12:19:43.920Z,39.24
2016-12-17T12:20:43.913Z,38.77
2016-12-17T12:21:43.896Z,39.15
2016-12-17T12:22:43.880Z,39.17
2016-12-17T12:23:43.870Z,39.07
2016-12-17T12:24:43.855Z,39.07
2016-12-17T12:25:43.844Z,39.07
2016-12-17T12:26:43.832Z,39.17
2016-12-17T12:27:43.819Z,39.07
2016-12-17T12:28:43.807Z,38.98
2016-12-17T12:29:43.796Z,38.89
2016-12-17T12:30:43.778Z,39.07
2016-12-17T12:31:43.771Z,38.98
2016-12-17T12:32:43.758Z,38.89
2016-12-17T12:33:43.745Z,38.98
2016-12-17T12:34:43.733Z,38.98
2016-12-17T12:35:43.720Z,38.98
2016-12-17T12:36:43.707Z,38.98
2016-12-17T12:37:43.698Z,39.05
2016-12-17T12:38:43.684Z,38.96
2016-12-17T12:39:43.672Z,39.15
2016-12-17T12:40:43.659Z,38.67
2016-12-17T12:41:43.646Z,38.84
2016-12-17T12:42:43.632Z,38.84
2016-12-17T12:43:43.622Z,39.13
2016-12-17T12:44:43.607Z,38.84
2016-12-17T12:45:43.596Z,38.65
2016-12-17T12:46:43.581Z,39.2
2016-12-17T12:47:43.569Z,38.94
2016-12-17T12:48:43.555Z,38.84
2016-12-17T12:49:43.546Z,39.13
2016-12-17T12:50:43.529Z,38.86
2016-12-17T12:51:43.516Z,39.05
2016-12-17T12:52:43.504Z,39.24
2016-12-17T12:53:43.489Z,39.36
2016-12-17T12:54:43.481Z,38.67